sensor_id;sensor_type;location;lat;lon;timestamp;P1;durP1;ratioP1;P2;durP2;ratioP2
39982;SDS011;25670;44.782;10.356;2023-05-31T00:01:44;8.77;;;8.02;;
39982;SDS011;25670;44.782;10.356;2023-05-31T00:04:10;9.82;;;8.82;;
39982;SDS011;25670;44.782;10.356;2023-05-31T00:06:36;8.93;;;8.25;;
39982;SDS011;25670;44.782;10.356;2023-05-31T00:09:02;15.70;;;8.68;;
39982;SDS011;25670;44.782;10.356;2023-05-31T00:11:29;11.45;;;9.82;;
39982;SDS011;25670;44.782;10.356;2023-05-31T00:13:55;12.65;;;8.90;;
39982;SDS011;25670;44.782;10.356;2023-05-31T00:16:21;10.10;;;9.20;;
39982;SDS011;25670;44.782;10.356;2023-05-31T00:18:48;12.88;;;9.38;;
39982;SDS011;25670;44.782;10.356;2023-05-31T00:21:14;15.80;;;11.10;;
39982;SDS011;25670;44.782;10.356;2023-05-31T00:23:40;10.82;;;9.70;;
39982;SDS011;25670;44.782;10.356;2023-05-31T00:26:06;11.15;;;10.13;;
39982;SDS011;25670;44.782;10.356;2023-05-31T00:28:32;10.45;;;9.65;;
39982;SDS011;25670;44.782;10.356;2023-05-31T00:30:59;12.95;;;9.23;;
39982;SDS011;25670;44.782;10.356;2023-05-31T00:33:25;16.15;;;10.13;;
39982;SDS011;25670;44.782;10.356;2023-05-31T00:35:51;12.23;;;9.70;;
39982;SDS011;25670;44.782;10.356;2023-05-31T00:38:18;12.93;;;10.60;;
39982;SDS011;25670;44.782;10.356;2023-05-31T00:40:44;13.75;;;9.57;;
39982;SDS011;25670;44.782;10.356;2023-05-31T00:43:11;12.07;;;9.98;;
39982;SDS011;25670;44.782;10.356;2023-05-31T00:45:37;10.10;;;9.25;;
39982;SDS011;25670;44.782;10.356;2023-05-31T00:48:03;11.80;;;10.18;;
39982;SDS011;25670;44.782;10.356;2023-05-31T00:50:30;11.00;;;9.90;;
39982;SDS011;25670;44.782;10.356;2023-05-31T00:52:57;11.40;;;8.90;;
39982;SDS011;25670;44.782;10.356;2023-05-31T00:55:26;10.05;;;8.85;;
39982;SDS011;25670;44.782;10.356;2023-05-31T00:57:54;9.68;;;8.80;;
39982;SDS011;25670;44.782;10.356;2023-05-31T01:00:20;14.45;;;9.07;;
39982;SDS011;25670;44.782;10.356;2023-05-31T01:02:47;10.13;;;8.35;;
39982;SDS011;25670;44.782;10.356;2023-05-31T01:05:16;13.05;;;9.98;;
39982;SDS011;25670;44.782;10.356;2023-05-31T01:07:43;16.58;;;8.90;;
39982;SDS011;25670;44.782;10.356;2023-05-31T01:10:11;8.70;;;8.00;;
39982;SDS011;25670;44.782;10.356;2023-05-31T01:15:21;18.52;;;9.65;;
39982;SDS011;25670;44.782;10.356;2023-05-31T01:17:57;10.52;;;7.93;;
39982;SDS011;25670;44.782;10.356;2023-05-31T01:20:37;10.98;;;9.10;;
39982;SDS011;25670;44.782;10.356;2023-05-31T01:28:55;9.73;;;8.85;;
39982;SDS011;25670;44.782;10.356;2023-05-31T01:31:26;14.00;;;8.95;;
39982;SDS011;25670;44.782;10.356;2023-05-31T01:33:55;10.50;;;8.85;;
39982;SDS011;25670;44.782;10.356;2023-05-31T01:36:22;11.02;;;10.00;;
39982;SDS011;25670;44.782;10.356;2023-05-31T01:38:49;10.70;;;9.75;;
39982;SDS011;25670;44.782;10.356;2023-05-31T01:41:15;12.77;;;10.30;;
39982;SDS011;25670;44.782;10.356;2023-05-31T01:43:43;11.43;;;10.27;;
39982;SDS011;25670;44.782;10.356;2023-05-31T01:46:12;13.52;;;10.27;;
39982;SDS011;25670;44.782;10.356;2023-05-31T01:48:42;18.38;;;11.30;;
39982;SDS011;25670;44.782;10.356;2023-05-31T01:51:10;19.73;;;10.85;;
39982;SDS011;25670;44.782;10.356;2023-05-31T01:53:40;10.90;;;9.82;;
39982;SDS011;25670;44.782;10.356;2023-05-31T01:56:10;15.30;;;11.10;;
39982;SDS011;25670;44.782;10.356;2023-05-31T01:58:39;19.60;;;11.73;;
39982;SDS011;25670;44.782;10.356;2023-05-31T02:01:12;11.93;;;9.73;;
39982;SDS011;25670;44.782;10.356;2023-05-31T02:03:39;12.48;;;11.10;;
39982;SDS011;25670;44.782;10.356;2023-05-31T02:06:06;12.38;;;11.30;;
39982;SDS011;25670;44.782;10.356;2023-05-31T02:08:32;12.50;;;11.30;;
39982;SDS011;25670;44.782;10.356;2023-05-31T02:11:00;13.57;;;12.20;;
39982;SDS011;25670;44.782;10.356;2023-05-31T02:13:27;14.10;;;12.10;;
39982;SDS011;25670;44.782;10.356;2023-05-31T02:15:55;14.38;;;12.73;;
39982;SDS011;25670;44.782;10.356;2023-05-31T02:18:22;14.40;;;12.90;;
39982;SDS011;25670;44.782;10.356;2023-05-31T02:20:52;14.70;;;13.02;;
39982;SDS011;25670;44.782;10.356;2023-05-31T02:23:19;16.58;;;13.23;;
39982;SDS011;25670;44.782;10.356;2023-05-31T02:25:49;14.57;;;13.18;;
39982;SDS011;25670;44.782;10.356;2023-05-31T02:28:16;16.73;;;12.80;;
39982;SDS011;25670;44.782;10.356;2023-05-31T02:30:52;14.02;;;12.68;;
39982;SDS011;25670;44.782;10.356;2023-05-31T02:33:20;14.48;;;13.05;;
39982;SDS011;25670;44.782;10.356;2023-05-31T02:35:46;17.77;;;14.25;;
39982;SDS011;25670;44.782;10.356;2023-05-31T02:38:14;18.52;;;13.75;;
39982;SDS011;25670;44.782;10.356;2023-05-31T02:40:42;20.73;;;15.35;;
39982;SDS011;25670;44.782;10.356;2023-05-31T02:43:08;15.30;;;13.70;;
39982;SDS011;25670;44.782;10.356;2023-05-31T02:45:36;27.10;;;15.90;;
39982;SDS011;25670;44.782;10.356;2023-05-31T02:48:03;16.63;;;14.40;;
39982;SDS011;25670;44.782;10.356;2023-05-31T02:50:31;20.85;;;15.10;;
39982;SDS011;25670;44.782;10.356;2023-05-31T02:52:59;23.15;;;15.88;;
39982;SDS011;25670;44.782;10.356;2023-05-31T02:55:41;22.63;;;14.18;;
39982;SDS011;25670;44.782;10.356;2023-05-31T02:58:19;18.23;;;14.43;;
39982;SDS011;25670;44.782;10.356;2023-05-31T03:01:08;19.75;;;14.98;;
39982;SDS011;25670;44.782;10.356;2023-05-31T03:03:42;18.95;;;15.90;;
39982;SDS011;25670;44.782;10.356;2023-05-31T03:06:23;23.35;;;15.45;;
39982;SDS011;25670;44.782;10.356;2023-05-31T03:08:50;30.20;;;14.95;;
39982;SDS011;25670;44.782;10.356;2023-05-31T03:11:16;25.27;;;14.35;;
39982;SDS011;25670;44.782;10.356;2023-05-31T03:13:42;15.52;;;14.13;;
39982;SDS011;25670;44.782;10.356;2023-05-31T03:16:09;16.65;;;14.20;;
39982;SDS011;25670;44.782;10.356;2023-05-31T03:18:35;21.52;;;15.13;;
39982;SDS011;25670;44.782;10.356;2023-05-31T03:21:01;17.17;;;13.93;;
39982;SDS011;25670;44.782;10.356;2023-05-31T03:23:29;15.30;;;13.68;;
39982;SDS011;25670;44.782;10.356;2023-05-31T03:25:55;21.63;;;15.40;;
39982;SDS011;25670;44.782;10.356;2023-05-31T03:28:21;19.90;;;14.68;;
39982;SDS011;25670;44.782;10.356;2023-05-31T03:30:47;16.73;;;13.68;;
39982;SDS011;25670;44.782;10.356;2023-05-31T03:33:14;19.85;;;13.20;;
39982;SDS011;25670;44.782;10.356;2023-05-31T03:35:40;20.15;;;14.10;;
39982;SDS011;25670;44.782;10.356;2023-05-31T03:38:06;18.88;;;14.10;;
39982;SDS011;25670;44.782;10.356;2023-05-31T03:40:34;16.45;;;13.38;;
39982;SDS011;25670;44.782;10.356;2023-05-31T03:43:00;15.73;;;13.27;;
39982;SDS011;25670;44.782;10.356;2023-05-31T03:45:27;19.35;;;14.23;;
39982;SDS011;25670;44.782;10.356;2023-05-31T03:47:53;18.20;;;14.73;;
39982;SDS011;25670;44.782;10.356;2023-05-31T03:50:20;18.40;;;13.90;;
39982;SDS011;25670;44.782;10.356;2023-05-31T03:52:47;17.67;;;13.95;;
39982;SDS011;25670;44.782;10.356;2023-05-31T03:55:13;18.92;;;13.30;;
39982;SDS011;25670;44.782;10.356;2023-05-31T03:57:39;17.65;;;13.02;;
39982;SDS011;25670;44.782;10.356;2023-05-31T04:00:07;15.13;;;13.45;;
39982;SDS011;25670;44.782;10.356;2023-05-31T04:02:39;20.38;;;13.75;;
39982;SDS011;25670;44.782;10.356;2023-05-31T04:05:07;15.32;;;12.75;;
39982;SDS011;25670;44.782;10.356;2023-05-31T04:07:33;14.68;;;13.07;;
39982;SDS011;25670;44.782;10.356;2023-05-31T04:09:59;19.00;;;13.30;;
39982;SDS011;25670;44.782;10.356;2023-05-31T04:12:26;15.27;;;13.73;;
39982;SDS011;25670;44.782;10.356;2023-05-31T04:14:52;14.20;;;12.77;;
39982;SDS011;25670;44.782;10.356;2023-05-31T04:17:20;14.48;;;12.73;;
39982;SDS011;25670;44.782;10.356;2023-05-31T04:19:46;17.33;;;12.90;;
39982;SDS011;25670;44.782;10.356;2023-05-31T04:22:13;16.02;;;13.88;;
39982;SDS011;25670;44.782;10.356;2023-05-31T04:24:39;19.83;;;14.52;;
39982;SDS011;25670;44.782;10.356;2023-05-31T04:27:07;18.73;;;14.23;;
39982;SDS011;25670;44.782;10.356;2023-05-31T04:29:35;20.10;;;13.88;;
39982;SDS011;25670;44.782;10.356;2023-05-31T04:32:03;15.40;;;13.60;;
39982;SDS011;25670;44.782;10.356;2023-05-31T04:34:30;22.08;;;12.77;;
39982;SDS011;25670;44.782;10.356;2023-05-31T04:36:57;15.80;;;12.40;;
39982;SDS011;25670;44.782;10.356;2023-05-31T04:39:25;19.63;;;12.93;;
39982;SDS011;25670;44.782;10.356;2023-05-31T04:41:55;31.50;;;13.88;;
39982;SDS011;25670;44.782;10.356;2023-05-31T04:44:22;14.20;;;12.80;;
39982;SDS011;25670;44.782;10.356;2023-05-31T04:46:50;16.25;;;13.45;;
39982;SDS011;25670;44.782;10.356;2023-05-31T04:49:17;19.48;;;14.43;;
39982;SDS011;25670;44.782;10.356;2023-05-31T04:51:44;24.33;;;13.77;;
39982;SDS011;25670;44.782;10.356;2023-05-31T04:54:11;15.82;;;13.43;;
39982;SDS011;25670;44.782;10.356;2023-05-31T04:56:37;15.35;;;12.27;;
39982;SDS011;25670;44.782;10.356;2023-05-31T04:59:04;13.48;;;12.02;;
39982;SDS011;25670;44.782;10.356;2023-05-31T05:01:33;14.75;;;13.07;;
39982;SDS011;25670;44.782;10.356;2023-05-31T05:04:06;13.48;;;12.07;;
39982;SDS011;25670;44.782;10.356;2023-05-31T05:06:32;12.05;;;10.25;;
39982;SDS011;25670;44.782;10.356;2023-05-31T05:09:03;11.38;;;10.32;;
39982;SDS011;25670;44.782;10.356;2023-05-31T05:11:31;10.30;;;9.25;;
39982;SDS011;25670;44.782;10.356;2023-05-31T05:13:58;10.77;;;8.10;;
39982;SDS011;25670;44.782;10.356;2023-05-31T05:16:26;11.27;;;7.88;;
39982;SDS011;25670;44.782;10.356;2023-05-31T05:18:53;11.55;;;7.60;;
39982;SDS011;25670;44.782;10.356;2023-05-31T05:21:19;10.50;;;8.60;;
39982;SDS011;25670;44.782;10.356;2023-05-31T05:23:46;12.45;;;7.40;;
39982;SDS011;25670;44.782;10.356;2023-05-31T05:26:13;11.30;;;8.55;;
39982;SDS011;25670;44.782;10.356;2023-05-31T05:28:39;11.63;;;8.60;;
39982;SDS011;25670;44.782;10.356;2023-05-31T05:31:06;9.00;;;8.02;;
39982;SDS011;25670;44.782;10.356;2023-05-31T05:33:35;7.75;;;7.25;;
39982;SDS011;25670;44.782;10.356;2023-05-31T05:36:03;11.68;;;7.53;;
39982;SDS011;25670;44.782;10.356;2023-05-31T05:38:32;7.45;;;6.95;;
39982;SDS011;25670;44.782;10.356;2023-05-31T05:40:58;7.43;;;6.70;;
39982;SDS011;25670;44.782;10.356;2023-05-31T05:43:24;10.38;;;6.90;;
39982;SDS011;25670;44.782;10.356;2023-05-31T05:46:00;9.45;;;6.70;;
39982;SDS011;25670;44.782;10.356;2023-05-31T05:48:26;7.55;;;5.97;;
39982;SDS011;25670;44.782;10.356;2023-05-31T05:50:52;6.82;;;6.10;;
39982;SDS011;25670;44.782;10.356;2023-05-31T05:53:19;6.70;;;6.20;;
39982;SDS011;25670;44.782;10.356;2023-05-31T05:55:50;6.90;;;6.40;;
39982;SDS011;25670;44.782;10.356;2023-05-31T05:58:21;6.68;;;6.18;;
39982;SDS011;25670;44.782;10.356;2023-05-31T06:01:07;8.52;;;6.05;;
39982;SDS011;25670;44.782;10.356;2023-05-31T06:03:36;7.55;;;6.78;;
39982;SDS011;25670;44.782;10.356;2023-05-31T06:06:04;6.90;;;6.13;;
39982;SDS011;25670;44.782;10.356;2023-05-31T06:08:30;11.13;;;5.60;;
39982;SDS011;25670;44.782;10.356;2023-05-31T06:10:57;8.05;;;5.25;;
39982;SDS011;25670;44.782;10.356;2023-05-31T06:13:23;5.07;;;4.57;;
39982;SDS011;25670;44.782;10.356;2023-05-31T06:15:49;6.03;;;4.80;;
39982;SDS011;25670;44.782;10.356;2023-05-31T06:18:16;6.63;;;5.57;;
39982;SDS011;25670;44.782;10.356;2023-05-31T06:20:42;5.80;;;5.30;;
39982;SDS011;25670;44.782;10.356;2023-05-31T06:23:09;6.18;;;5.60;;
39982;SDS011;25670;44.782;10.356;2023-05-31T06:25:35;6.18;;;5.68;;
39982;SDS011;25670;44.782;10.356;2023-05-31T06:28:02;5.65;;;5.15;;
39982;SDS011;25670;44.782;10.356;2023-05-31T06:30:31;5.97;;;5.35;;
39982;SDS011;25670;44.782;10.356;2023-05-31T06:32:57;7.07;;;4.95;;
39982;SDS011;25670;44.782;10.356;2023-05-31T06:35:24;7.43;;;4.78;;
39982;SDS011;25670;44.782;10.356;2023-05-31T06:37:50;5.80;;;4.97;;
39982;SDS011;25670;44.782;10.356;2023-05-31T06:40:17;7.75;;;4.28;;
39982;SDS011;25670;44.782;10.356;2023-05-31T06:42:44;5.60;;;4.78;;
39982;SDS011;25670;44.782;10.356;2023-05-31T06:45:31;5.45;;;4.60;;
39982;SDS011;25670;44.782;10.356;2023-05-31T06:48:13;5.50;;;5.00;;
39982;SDS011;25670;44.782;10.356;2023-05-31T06:50:58;10.18;;;5.40;;
39982;SDS011;25670;44.782;10.356;2023-05-31T06:53:31;7.40;;;4.75;;
39982;SDS011;25670;44.782;10.356;2023-05-31T06:56:07;7.28;;;5.28;;
39982;SDS011;25670;44.782;10.356;2023-05-31T06:58:33;5.25;;;4.80;;
39982;SDS011;25670;44.782;10.356;2023-05-31T07:00:59;5.30;;;4.90;;
39982;SDS011;25670;44.782;10.356;2023-05-31T07:03:25;4.47;;;4.18;;
39982;SDS011;25670;44.782;10.356;2023-05-31T07:05:52;7.00;;;5.25;;
39982;SDS011;25670;44.782;10.356;2023-05-31T07:08:20;9.93;;;5.05;;
39982;SDS011;25670;44.782;10.356;2023-05-31T07:11:06;27.70;;;6.32;;
39982;SDS011;25670;44.782;10.356;2023-05-31T07:13:32;10.57;;;5.75;;
39982;SDS011;25670;44.782;10.356;2023-05-31T07:15:58;5.95;;;5.20;;
39982;SDS011;25670;44.782;10.356;2023-05-31T07:18:25;5.72;;;5.05;;
39982;SDS011;25670;44.782;10.356;2023-05-31T07:20:55;9.98;;;5.82;;
39982;SDS011;25670;44.782;10.356;2023-05-31T07:23:22;5.57;;;5.00;;
39982;SDS011;25670;44.782;10.356;2023-05-31T07:25:52;11.27;;;6.82;;
39982;SDS011;25670;44.782;10.356;2023-05-31T07:28:18;8.10;;;4.97;;
39982;SDS011;25670;44.782;10.356;2023-05-31T07:30:44;10.80;;;5.68;;
39982;SDS011;25670;44.782;10.356;2023-05-31T07:33:10;7.97;;;5.15;;
39982;SDS011;25670;44.782;10.356;2023-05-31T07:35:37;6.07;;;5.47;;
39982;SDS011;25670;44.782;10.356;2023-05-31T07:38:03;6.80;;;5.70;;
39982;SDS011;25670;44.782;10.356;2023-05-31T07:40:29;8.40;;;5.70;;
39982;SDS011;25670;44.782;10.356;2023-05-31T07:42:55;5.50;;;4.97;;
39982;SDS011;25670;44.782;10.356;2023-05-31T07:45:21;13.88;;;6.38;;
39982;SDS011;25670;44.782;10.356;2023-05-31T07:47:47;7.20;;;6.60;;
39982;SDS011;25670;44.782;10.356;2023-05-31T07:50:14;5.93;;;5.50;;
39982;SDS011;25670;44.782;10.356;2023-05-31T07:52:40;6.95;;;6.35;;
39982;SDS011;25670;44.782;10.356;2023-05-31T07:55:07;9.68;;;6.03;;
39982;SDS011;25670;44.782;10.356;2023-05-31T07:57:33;8.35;;;6.07;;
39982;SDS011;25670;44.782;10.356;2023-05-31T07:59:59;5.65;;;5.15;;
39982;SDS011;25670;44.782;10.356;2023-05-31T08:02:25;8.20;;;5.45;;
39982;SDS011;25670;44.782;10.356;2023-05-31T08:04:51;12.05;;;6.78;;
39982;SDS011;25670;44.782;10.356;2023-05-31T08:07:17;7.95;;;5.93;;
39982;SDS011;25670;44.782;10.356;2023-05-31T08:09:44;8.27;;;5.95;;
39982;SDS011;25670;44.782;10.356;2023-05-31T08:12:10;8.73;;;6.15;;
39982;SDS011;25670;44.782;10.356;2023-05-31T08:14:36;9.25;;;5.78;;
39982;SDS011;25670;44.782;10.356;2023-05-31T08:17:03;6.50;;;5.60;;
39982;SDS011;25670;44.782;10.356;2023-05-31T08:19:29;6.40;;;5.47;;
39982;SDS011;25670;44.782;10.356;2023-05-31T08:21:55;7.35;;;5.88;;
39982;SDS011;25670;44.782;10.356;2023-05-31T08:24:21;13.43;;;5.78;;
39982;SDS011;25670;44.782;10.356;2023-05-31T08:26:47;13.43;;;5.60;;
39982;SDS011;25670;44.782;10.356;2023-05-31T08:29:15;8.23;;;5.85;;
39982;SDS011;25670;44.782;10.356;2023-05-31T08:31:42;6.00;;;5.50;;
39982;SDS011;25670;44.782;10.356;2023-05-31T08:34:08;10.88;;;6.22;;
39982;SDS011;25670;44.782;10.356;2023-05-31T08:36:34;9.00;;;5.88;;
39982;SDS011;25670;44.782;10.356;2023-05-31T08:39:01;7.38;;;6.78;;
39982;SDS011;25670;44.782;10.356;2023-05-31T08:41:29;8.55;;;6.25;;
39982;SDS011;25670;44.782;10.356;2023-05-31T08:44:01;8.02;;;5.82;;
39982;SDS011;25670;44.782;10.356;2023-05-31T08:46:29;6.03;;;5.63;;
39982;SDS011;25670;44.782;10.356;2023-05-31T08:49:05;8.18;;;6.55;;
39982;SDS011;25670;44.782;10.356;2023-05-31T08:51:36;5.97;;;5.30;;
39982;SDS011;25670;44.782;10.356;2023-05-31T08:54:03;8.95;;;6.20;;
39982;SDS011;25670;44.782;10.356;2023-05-31T08:56:32;6.30;;;5.65;;
39982;SDS011;25670;44.782;10.356;2023-05-31T08:58:58;7.63;;;5.63;;
39982;SDS011;25670;44.782;10.356;2023-05-31T09:01:25;6.35;;;5.85;;
39982;SDS011;25670;44.782;10.356;2023-05-31T09:03:54;8.73;;;6.40;;
39982;SDS011;25670;44.782;10.356;2023-05-31T09:06:20;6.80;;;6.20;;
39982;SDS011;25670;44.782;10.356;2023-05-31T09:08:47;8.95;;;5.20;;
39982;SDS011;25670;44.782;10.356;2023-05-31T09:11:14;6.28;;;5.72;;
39982;SDS011;25670;44.782;10.356;2023-05-31T09:13:40;8.32;;;6.88;;
39982;SDS011;25670;44.782;10.356;2023-05-31T09:16:07;8.55;;;5.82;;
39982;SDS011;25670;44.782;10.356;2023-05-31T09:18:37;6.47;;;5.90;;
39982;SDS011;25670;44.782;10.356;2023-05-31T09:21:09;6.22;;;5.63;;
39982;SDS011;25670;44.782;10.356;2023-05-31T09:23:37;5.40;;;4.85;;
39982;SDS011;25670;44.782;10.356;2023-05-31T09:26:07;5.80;;;5.20;;
39982;SDS011;25670;44.782;10.356;2023-05-31T09:28:33;6.60;;;5.00;;
39982;SDS011;25670;44.782;10.356;2023-05-31T09:31:04;8.75;;;6.47;;
39982;SDS011;25670;44.782;10.356;2023-05-31T09:33:36;5.53;;;4.82;;
39982;SDS011;25670;44.782;10.356;2023-05-31T09:36:04;5.93;;;5.47;;
39982;SDS011;25670;44.782;10.356;2023-05-31T09:38:31;7.97;;;5.68;;
39982;SDS011;25670;44.782;10.356;2023-05-31T09:43:58;7.18;;;5.50;;
39982;SDS011;25670;44.782;10.356;2023-05-31T09:46:24;6.95;;;5.43;;
39982;SDS011;25670;44.782;10.356;2023-05-31T09:51:25;7.47;;;5.93;;
39982;SDS011;25670;44.782;10.356;2023-05-31T09:53:52;5.95;;;4.88;;
39982;SDS011;25670;44.782;10.356;2023-05-31T09:56:21;5.65;;;5.15;;
39982;SDS011;25670;44.782;10.356;2023-05-31T09:58:49;5.45;;;5.05;;
39982;SDS011;25670;44.782;10.356;2023-05-31T10:01:17;8.48;;;5.38;;
39982;SDS011;25670;44.782;10.356;2023-05-31T10:03:44;15.35;;;5.53;;
39982;SDS011;25670;44.782;10.356;2023-05-31T10:06:10;6.95;;;5.10;;
39982;SDS011;25670;44.782;10.356;2023-05-31T10:08:37;5.70;;;5.18;;
39982;SDS011;25670;44.782;10.356;2023-05-31T10:11:03;5.78;;;5.28;;
39982;SDS011;25670;44.782;10.356;2023-05-31T10:13:30;5.93;;;5.28;;
39982;SDS011;25670;44.782;10.356;2023-05-31T10:15:58;6.75;;;5.90;;
39982;SDS011;25670;44.782;10.356;2023-05-31T10:18:31;5.78;;;5.32;;
39982;SDS011;25670;44.782;10.356;2023-05-31T10:21:08;7.15;;;5.97;;
39982;SDS011;25670;44.782;10.356;2023-05-31T10:23:43;8.52;;;5.80;;
39982;SDS011;25670;44.782;10.356;2023-05-31T10:26:14;12.15;;;5.22;;
39982;SDS011;25670;44.782;10.356;2023-05-31T10:31:12;5.22;;;4.65;;
39982;SDS011;25670;44.782;10.356;2023-05-31T10:33:44;8.88;;;5.57;;
39982;SDS011;25670;44.782;10.356;2023-05-31T10:36:14;11.52;;;5.53;;
39982;SDS011;25670;44.782;10.356;2023-05-31T10:39:00;11.13;;;6.60;;
39982;SDS011;25670;44.782;10.356;2023-05-31T10:41:36;4.95;;;4.65;;
39982;SDS011;25670;44.782;10.356;2023-05-31T10:44:10;8.70;;;6.05;;
39982;SDS011;25670;44.782;10.356;2023-05-31T10:46:43;6.32;;;5.80;;
39982;SDS011;25670;44.782;10.356;2023-05-31T10:49:14;6.65;;;5.93;;
39982;SDS011;25670;44.782;10.356;2023-05-31T10:51:46;6.55;;;5.88;;
39982;SDS011;25670;44.782;10.356;2023-05-31T10:54:19;7.25;;;5.82;;
39982;SDS011;25670;44.782;10.356;2023-05-31T10:56:53;9.10;;;5.88;;
39982;SDS011;25670;44.782;10.356;2023-05-31T10:59:21;6.45;;;5.72;;
39982;SDS011;25670;44.782;10.356;2023-05-31T11:01:48;6.82;;;5.70;;
39982;SDS011;25670;44.782;10.356;2023-05-31T11:04:24;6.55;;;5.07;;
39982;SDS011;25670;44.782;10.356;2023-05-31T11:06:52;8.10;;;6.55;;
39982;SDS011;25670;44.782;10.356;2023-05-31T11:09:19;5.57;;;4.90;;
39982;SDS011;25670;44.782;10.356;2023-05-31T11:11:47;6.82;;;5.35;;
39982;SDS011;25670;44.782;10.356;2023-05-31T11:19:35;6.07;;;5.57;;
39982;SDS011;25670;44.782;10.356;2023-05-31T11:22:12;4.70;;;4.20;;
39982;SDS011;25670;44.782;10.356;2023-05-31T11:27:18;5.80;;;4.15;;
39982;SDS011;25670;44.782;10.356;2023-05-31T11:32:17;6.30;;;4.65;;
39982;SDS011;25670;44.782;10.356;2023-05-31T11:34:58;5.07;;;4.68;;
39982;SDS011;25670;44.782;10.356;2023-05-31T11:39:59;5.20;;;3.78;;
39982;SDS011;25670;44.782;10.356;2023-05-31T11:42:29;8.67;;;4.67;;
39982;SDS011;25670;44.782;10.356;2023-05-31T11:44:57;6.72;;;4.35;;
39982;SDS011;25670;44.782;10.356;2023-05-31T11:47:39;5.38;;;4.65;;
39982;SDS011;25670;44.782;10.356;2023-05-31T11:50:16;4.55;;;4.05;;
39982;SDS011;25670;44.782;10.356;2023-05-31T11:52:43;9.55;;;4.78;;
39982;SDS011;25670;44.782;10.356;2023-05-31T11:55:10;4.80;;;4.20;;
39982;SDS011;25670;44.782;10.356;2023-05-31T11:57:43;7.65;;;4.43;;
39982;SDS011;25670;44.782;10.356;2023-05-31T12:00:10;4.43;;;4.10;;
39982;SDS011;25670;44.782;10.356;2023-05-31T12:02:43;8.60;;;3.90;;
39982;SDS011;25670;44.782;10.356;2023-05-31T12:05:16;8.07;;;3.70;;
39982;SDS011;25670;44.782;10.356;2023-05-31T12:07:43;7.63;;;3.65;;
39982;SDS011;25670;44.782;10.356;2023-05-31T12:10:10;5.82;;;4.10;;
39982;SDS011;25670;44.782;10.356;2023-05-31T12:12:40;4.63;;;4.05;;
39982;SDS011;25670;44.782;10.356;2023-05-31T12:15:07;6.15;;;4.05;;
39982;SDS011;25670;44.782;10.356;2023-05-31T12:17:37;4.85;;;4.45;;
39982;SDS011;25670;44.782;10.356;2023-05-31T12:20:05;6.75;;;4.20;;
39982;SDS011;25670;44.782;10.356;2023-05-31T12:22:31;8.00;;;4.63;;
39982;SDS011;25670;44.782;10.356;2023-05-31T12:24:57;4.80;;;4.40;;
39982;SDS011;25670;44.782;10.356;2023-05-31T12:27:25;7.68;;;4.28;;
39982;SDS011;25670;44.782;10.356;2023-05-31T12:29:56;3.60;;;3.40;;
39982;SDS011;25670;44.782;10.356;2023-05-31T12:32:22;4.03;;;3.67;;
39982;SDS011;25670;44.782;10.356;2023-05-31T12:35:04;4.88;;;4.00;;
39982;SDS011;25670;44.782;10.356;2023-05-31T12:37:35;17.05;;;4.85;;
39982;SDS011;25670;44.782;10.356;2023-05-31T12:40:11;4.53;;;3.88;;
39982;SDS011;25670;44.782;10.356;2023-05-31T12:42:42;6.65;;;4.53;;
39982;SDS011;25670;44.782;10.356;2023-05-31T12:45:08;8.02;;;4.35;;
39982;SDS011;25670;44.782;10.356;2023-05-31T12:47:35;4.00;;;3.70;;
39982;SDS011;25670;44.782;10.356;2023-05-31T12:50:03;4.53;;;4.10;;
39982;SDS011;25670;44.782;10.356;2023-05-31T12:55:00;8.85;;;4.40;;
39982;SDS011;25670;44.782;10.356;2023-05-31T12:57:30;7.07;;;3.77;;
39982;SDS011;25670;44.782;10.356;2023-05-31T12:59:57;4.55;;;3.80;;
39982;SDS011;25670;44.782;10.356;2023-05-31T13:02:24;5.88;;;4.70;;
39982;SDS011;25670;44.782;10.356;2023-05-31T13:04:50;7.53;;;4.25;;
39982;SDS011;25670;44.782;10.356;2023-05-31T13:07:16;5.03;;;4.15;;
39982;SDS011;25670;44.782;10.356;2023-05-31T13:09:42;7.63;;;4.07;;
39982;SDS011;25670;44.782;10.356;2023-05-31T13:12:09;4.82;;;3.67;;
39982;SDS011;25670;44.782;10.356;2023-05-31T13:14:35;4.28;;;3.95;;
39982;SDS011;25670;44.782;10.356;2023-05-31T13:17:01;4.90;;;3.85;;
39982;SDS011;25670;44.782;10.356;2023-05-31T13:19:27;5.88;;;3.42;;
39982;SDS011;25670;44.782;10.356;2023-05-31T13:21:54;8.55;;;3.85;;
39982;SDS011;25670;44.782;10.356;2023-05-31T13:24:20;5.65;;;4.07;;
39982;SDS011;25670;44.782;10.356;2023-05-31T13:26:47;5.43;;;3.78;;
39982;SDS011;25670;44.782;10.356;2023-05-31T13:29:13;6.05;;;4.00;;
39982;SDS011;25670;44.782;10.356;2023-05-31T13:31:39;4.80;;;4.10;;
39982;SDS011;25670;44.782;10.356;2023-05-31T13:34:05;5.00;;;3.42;;
39982;SDS011;25670;44.782;10.356;2023-05-31T13:36:32;8.50;;;3.33;;
39982;SDS011;25670;44.782;10.356;2023-05-31T13:38:58;4.47;;;3.78;;
39982;SDS011;25670;44.782;10.356;2023-05-31T13:41:24;6.40;;;3.83;;
39982;SDS011;25670;44.782;10.356;2023-05-31T13:43:51;6.93;;;3.60;;
39982;SDS011;25670;44.782;10.356;2023-05-31T13:46:17;4.20;;;3.80;;
39982;SDS011;25670;44.782;10.356;2023-05-31T13:48:44;5.20;;;4.35;;
39982;SDS011;25670;44.782;10.356;2023-05-31T13:51:10;6.65;;;3.92;;
39982;SDS011;25670;44.782;10.356;2023-05-31T13:53:41;7.07;;;3.95;;
39982;SDS011;25670;44.782;10.356;2023-05-31T13:56:07;5.72;;;3.42;;
39982;SDS011;25670;44.782;10.356;2023-05-31T13:58:34;4.50;;;3.72;;
39982;SDS011;25670;44.782;10.356;2023-05-31T14:01:02;5.82;;;3.70;;
39982;SDS011;25670;44.782;10.356;2023-05-31T14:03:34;5.07;;;3.42;;
39982;SDS011;25670;44.782;10.356;2023-05-31T14:06:01;10.15;;;3.97;;
39982;SDS011;25670;44.782;10.356;2023-05-31T14:08:27;3.80;;;3.50;;
39982;SDS011;25670;44.782;10.356;2023-05-31T14:10:53;5.25;;;3.55;;
39982;SDS011;25670;44.782;10.356;2023-05-31T14:13:20;4.75;;;3.25;;
39982;SDS011;25670;44.782;10.356;2023-05-31T14:15:47;6.85;;;4.10;;
39982;SDS011;25670;44.782;10.356;2023-05-31T14:18:14;6.50;;;3.47;;
39982;SDS011;25670;44.782;10.356;2023-05-31T14:20:40;4.00;;;3.70;;
39982;SDS011;25670;44.782;10.356;2023-05-31T14:23:06;5.40;;;4.15;;
39982;SDS011;25670;44.782;10.356;2023-05-31T14:25:33;4.85;;;3.50;;
39982;SDS011;25670;44.782;10.356;2023-05-31T14:27:59;8.13;;;3.42;;
39982;SDS011;25670;44.782;10.356;2023-05-31T14:30:25;5.03;;;3.22;;
39982;SDS011;25670;44.782;10.356;2023-05-31T14:32:54;4.40;;;2.88;;
39982;SDS011;25670;44.782;10.356;2023-05-31T14:35:21;8.05;;;3.72;;
39982;SDS011;25670;44.782;10.356;2023-05-31T14:37:47;3.28;;;3.05;;
39982;SDS011;25670;44.782;10.356;2023-05-31T14:40:13;6.25;;;4.03;;
39982;SDS011;25670;44.782;10.356;2023-05-31T14:42:40;9.02;;;3.67;;
39982;SDS011;25670;44.782;10.356;2023-05-31T14:45:06;8.65;;;3.20;;
39982;SDS011;25670;44.782;10.356;2023-05-31T14:47:33;3.75;;;3.22;;
39982;SDS011;25670;44.782;10.356;2023-05-31T14:50:02;3.30;;;3.00;;
39982;SDS011;25670;44.782;10.356;2023-05-31T14:52:29;3.88;;;2.90;;
39982;SDS011;25670;44.782;10.356;2023-05-31T14:54:55;4.32;;;3.45;;
39982;SDS011;25670;44.782;10.356;2023-05-31T14:57:21;10.82;;;3.80;;
39982;SDS011;25670;44.782;10.356;2023-05-31T14:59:47;5.13;;;3.45;;
39982;SDS011;25670;44.782;10.356;2023-05-31T15:02:13;5.28;;;3.38;;
39982;SDS011;25670;44.782;10.356;2023-05-31T15:04:40;3.75;;;3.45;;